sensor_id;sensor_type;location;lat;lon;timestamp;temperature;humidity
7502;DHT22;3792;47.740;7.606;2023-10-13T00:01:56;17.50;99.90
7502;DHT22;3792;47.740;7.606;2023-10-13T00:04:24;17.50;99.90
7502;DHT22;3792;47.740;7.606;2023-10-13T00:06:51;17.50;99.90
7502;DHT22;3792;47.740;7.606;2023-10-13T00:09:19;17.50;99.90
7502;DHT22;3792;47.740;7.606;2023-10-13T00:11:51;17.50;99.90
7502;DHT22;3792;47.740;7.606;2023-10-13T00:14:19;17.50;99.90
7502;DHT22;3792;47.740;7.606;2023-10-13T00:16:49;17.50;99.90
7502;DHT22;3792;47.740;7.606;2023-10-13T00:19:31;17.40;99.90
7502;DHT22;3792;47.740;7.606;2023-10-13T00:22:10;17.30;99.90
7502;DHT22;3792;47.740;7.606;2023-10-13T00:24:38;17.20;99.90
7502;DHT22;3792;47.740;7.606;2023-10-13T00:27:11;17.20;99.90
7502;DHT22;3792;47.740;7.606;2023-10-13T00:29:55;17.20;99.90
7502;DHT22;3792;47.740;7.606;2023-10-13T00:32:37;17.20;99.90
7502;DHT22;3792;47.740;7.606;2023-10-13T00:35:09;17.10;99.90
7502;DHT22;3792;47.740;7.606;2023-10-13T00:37:36;17.10;99.90
7502;DHT22;3792;47.740;7.606;2023-10-13T00:40:10;17.10;99.90
7502;DHT22;3792;47.740;7.606;2023-10-13T00:42:58;17.10;99.90
7502;DHT22;3792;47.740;7.606;2023-10-13T00:45:47;17.10;99.90
7502;DHT22;3792;47.740;7.606;2023-10-13T00:48:22;17.00;99.90
7502;DHT22;3792;47.740;7.606;2023-10-13T00:50:58;17.00;99.90
7502;DHT22;3792;47.740;7.606;2023-10-13T00:53:29;16.90;99.90
7502;DHT22;3792;47.740;7.606;2023-10-13T00:55:55;17.00;99.90
7502;DHT22;3792;47.740;7.606;2023-10-13T00:58:23;17.00;99.90
7502;DHT22;3792;47.740;7.606;2023-10-13T01:00:50;17.00;99.90
7502;DHT22;3792;47.740;7.606;2023-10-13T01:03:24;17.00;99.90
7502;DHT22;3792;47.740;7.606;2023-10-13T01:05:54;17.00;99.90
7502;DHT22;3792;47.740;7.606;2023-10-13T01:08:32;17.00;99.90
7502;DHT22;3792;47.740;7.606;2023-10-13T01:11:00;17.00;99.90
7502;DHT22;3792;47.740;7.606;2023-10-13T01:13:27;17.00;99.90
7502;DHT22;3792;47.740;7.606;2023-10-13T01:15:56;17.00;99.90
7502;DHT22;3792;47.740;7.606;2023-10-13T01:18:25;16.80;99.90
7502;DHT22;3792;47.740;7.606;2023-10-13T01:20:54;16.60;99.90
7502;DHT22;3792;47.740;7.606;2023-10-13T01:23:26;16.60;99.90
7502;DHT22;3792;47.740;7.606;2023-10-13T01:25:54;16.50;99.90
7502;DHT22;3792;47.740;7.606;2023-10-13T01:28:23;16.50;99.90
7502;DHT22;3792;47.740;7.606;2023-10-13T01:30:49;16.40;99.90
7502;DHT22;3792;47.740;7.606;2023-10-13T01:33:17;16.40;99.90
7502;DHT22;3792;47.740;7.606;2023-10-13T01:35:43;16.50;99.90
7502;DHT22;3792;47.740;7.606;2023-10-13T01:38:13;16.50;99.90
7502;DHT22;3792;47.740;7.606;2023-10-13T01:40:41;16.50;99.90
7502;DHT22;3792;47.740;7.606;2023-10-13T01:43:09;16.50;99.90
7502;DHT22;3792;47.740;7.606;2023-10-13T01:45:37;16.50;99.90
7502;DHT22;3792;47.740;7.606;2023-10-13T01:48:12;16.40;99.90
7502;DHT22;3792;47.740;7.606;2023-10-13T01:50:41;16.30;99.90
7502;DHT22;3792;47.740;7.606;2023-10-13T01:53:14;16.30;99.90
7502;DHT22;3792;47.740;7.606;2023-10-13T01:55:44;16.20;99.90
7502;DHT22;3792;47.740;7.606;2023-10-13T01:58:12;16.00;99.90
7502;DHT22;3792;47.740;7.606;2023-10-13T02:00:41;16.00;99.90
7502;DHT22;3792;47.740;7.606;2023-10-13T02:03:10;16.00;99.90
7502;DHT22;3792;47.740;7.606;2023-10-13T02:05:41;16.10;99.90
7502;DHT22;3792;47.740;7.606;2023-10-13T02:08:13;16.10;99.90
7502;DHT22;3792;47.740;7.606;2023-10-13T02:10:50;16.00;99.90
7502;DHT22;3792;47.740;7.606;2023-10-13T02:13:18;16.00;99.90
7502;DHT22;3792;47.740;7.606;2023-10-13T02:15:46;15.80;99.90
7502;DHT22;3792;47.740;7.606;2023-10-13T02:18:15;15.70;99.90
7502;DHT22;3792;47.740;7.606;2023-10-13T02:20:47;15.80;99.90
7502;DHT22;3792;47.740;7.606;2023-10-13T02:23:22;15.90;99.90
7502;DHT22;3792;47.740;7.606;2023-10-13T02:25:52;15.90;99.90
7502;DHT22;3792;47.740;7.606;2023-10-13T02:28:26;15.90;99.90
7502;DHT22;3792;47.740;7.606;2023-10-13T02:30:54;15.90;99.90
7502;DHT22;3792;47.740;7.606;2023-10-13T02:33:23;15.90;99.90
7502;DHT22;3792;47.740;7.606;2023-10-13T02:35:55;15.90;99.90
7502;DHT22;3792;47.740;7.606;2023-10-13T02:38:22;15.90;99.90
7502;DHT22;3792;47.740;7.606;2023-10-13T02:41:13;15.90;99.90
7502;DHT22;3792;47.740;7.606;2023-10-13T02:43:45;15.90;99.90
7502;DHT22;3792;47.740;7.606;2023-10-13T02:46:12;15.90;99.90
7502;DHT22;3792;47.740;7.606;2023-10-13T02:48:42;15.90;99.90
7502;DHT22;3792;47.740;7.606;2023-10-13T02:51:12;15.90;99.90
7502;DHT22;3792;47.740;7.606;2023-10-13T02:53:43;15.80;99.90
7502;DHT22;3792;47.740;7.606;2023-10-13T02:56:14;15.80;99.90
7502;DHT22;3792;47.740;7.606;2023-10-13T02:58:47;15.70;99.90
7502;DHT22;3792;47.740;7.606;2023-10-13T03:01:19;15.60;99.90
7502;DHT22;3792;47.740;7.606;2023-10-13T03:03:49;15.60;99.90
7502;DHT22;3792;47.740;7.606;2023-10-13T03:06:21;15.50;99.90
7502;DHT22;3792;47.740;7.606;2023-10-13T03:08:52;15.50;99.90
7502;DHT22;3792;47.740;7.606;2023-10-13T03:11:19;15.60;99.90
7502;DHT22;3792;47.740;7.606;2023-10-13T03:13:49;15.60;99.90
7502;DHT22;3792;47.740;7.606;2023-10-13T03:16:18;15.60;99.90
7502;DHT22;3792;47.740;7.606;2023-10-13T03:18:47;15.60;99.90
7502;DHT22;3792;47.740;7.606;2023-10-13T03:21:23;15.40;99.90
7502;DHT22;3792;47.740;7.606;2023-10-13T03:23:58;15.40;99.90
7502;DHT22;3792;47.740;7.606;2023-10-13T03:26:33;15.20;99.90
7502;DHT22;3792;47.740;7.606;2023-10-13T03:29:02;15.20;99.90
7502;DHT22;3792;47.740;7.606;2023-10-13T03:31:30;15.20;99.90
7502;DHT22;3792;47.740;7.606;2023-10-13T03:34:04;15.20;99.90
7502;DHT22;3792;47.740;7.606;2023-10-13T03:36:35;15.00;99.90
7502;DHT22;3792;47.740;7.606;2023-10-13T03:39:27;14.80;99.90
7502;DHT22;3792;47.740;7.606;2023-10-13T03:41:58;14.80;99.90
7502;DHT22;3792;47.740;7.606;2023-10-13T03:44:25;14.80;99.90
7502;DHT22;3792;47.740;7.606;2023-10-13T03:46:56;14.80;99.90
7502;DHT22;3792;47.740;7.606;2023-10-13T03:49:34;14.70;99.90
7502;DHT22;3792;47.740;7.606;2023-10-13T03:52:04;14.70;99.90
7502;DHT22;3792;47.740;7.606;2023-10-13T03:54:31;14.70;99.90
7502;DHT22;3792;47.740;7.606;2023-10-13T03:57:05;14.70;99.90
7502;DHT22;3792;47.740;7.606;2023-10-13T03:59:37;14.80;99.90
7502;DHT22;3792;47.740;7.606;2023-10-13T04:02:05;14.80;99.90
7502;DHT22;3792;47.740;7.606;2023-10-13T04:04:39;14.80;99.90
7502;DHT22;3792;47.740;7.606;2023-10-13T04:07:15;14.80;99.90
7502;DHT22;3792;47.740;7.606;2023-10-13T04:09:59;14.70;99.90
7502;DHT22;3792;47.740;7.606;2023-10-13T04:12:45;14.80;99.90
7502;DHT22;3792;47.740;7.606;2023-10-13T04:15:30;14.90;99.90
7502;DHT22;3792;47.740;7.606;2023-10-13T04:18:10;15.00;99.90
7502;DHT22;3792;47.740;7.606;2023-10-13T04:21:00;15.10;99.90
7502;DHT22;3792;47.740;7.606;2023-10-13T04:23:44;15.20;99.90
7502;DHT22;3792;47.740;7.606;2023-10-13T04:26:25;15.10;99.90
7502;DHT22;3792;47.740;7.606;2023-10-13T04:29:04;15.10;99.90
7502;DHT22;3792;47.740;7.606;2023-10-13T04:31:37;14.90;99.90
7502;DHT22;3792;47.740;7.606;2023-10-13T04:34:21;14.80;99.90
7502;DHT22;3792;47.740;7.606;2023-10-13T04:36:54;14.60;99.90
7502;DHT22;3792;47.740;7.606;2023-10-13T04:39:36;14.60;99.90
7502;DHT22;3792;47.740;7.606;2023-10-13T04:42:06;14.50;99.90
7502;DHT22;3792;47.740;7.606;2023-10-13T04:44:40;14.50;99.90
7502;DHT22;3792;47.740;7.606;2023-10-13T04:47:18;14.30;99.90
7502;DHT22;3792;47.740;7.606;2023-10-13T04:49:47;14.10;99.90
7502;DHT22;3792;47.740;7.606;2023-10-13T04:52:19;14.10;99.90
7502;DHT22;3792;47.740;7.606;2023-10-13T04:55:05;14.10;99.90
7502;DHT22;3792;47.740;7.606;2023-10-13T04:57:59;14.10;99.90
7502;DHT22;3792;47.740;7.606;2023-10-13T05:00:38;14.10;99.90
7502;DHT22;3792;47.740;7.606;2023-10-13T05:03:37;13.70;99.90
7502;DHT22;3792;47.740;7.606;2023-10-13T05:06:19;13.60;99.90
7502;DHT22;3792;47.740;7.606;2023-10-13T05:09:12;13.60;99.90
7502;DHT22;3792;47.740;7.606;2023-10-13T05:11:57;13.80;99.90
7502;DHT22;3792;47.740;7.606;2023-10-13T05:14:42;13.80;99.90
7502;DHT22;3792;47.740;7.606;2023-10-13T05:17:33;13.80;99.90
7502;DHT22;3792;47.740;7.606;2023-10-13T05:20:18;13.80;99.90
7502;DHT22;3792;47.740;7.606;2023-10-13T05:23:02;13.90;99.90
7502;DHT22;3792;47.740;7.606;2023-10-13T05:25:47;13.80;99.90
7502;DHT22;3792;47.740;7.606;2023-10-13T05:28:31;13.80;99.90
7502;DHT22;3792;47.740;7.606;2023-10-13T05:31:16;13.80;99.90
7502;DHT22;3792;47.740;7.606;2023-10-13T05:34:02;13.80;99.90
7502;DHT22;3792;47.740;7.606;2023-10-13T05:36:46;13.60;99.90
7502;DHT22;3792;47.740;7.606;2023-10-13T05:39:31;13.60;99.90
7502;DHT22;3792;47.740;7.606;2023-10-13T05:42:15;13.70;99.90
7502;DHT22;3792;47.740;7.606;2023-10-13T05:45:09;13.70;99.90
7502;DHT22;3792;47.740;7.606;2023-10-13T05:48:02;13.70;99.90
7502;DHT22;3792;47.740;7.606;2023-10-13T05:50:39;13.70;99.90
7502;DHT22;3792;47.740;7.606;2023-10-13T05:53:44;13.80;99.90
7502;DHT22;3792;47.740;7.606;2023-10-13T05:56:44;13.80;99.90
7502;DHT22;3792;47.740;7.606;2023-10-13T05:59:29;13.70;99.90
7502;DHT22;3792;47.740;7.606;2023-10-13T06:02:15;13.70;99.90
7502;DHT22;3792;47.740;7.606;2023-10-13T06:05:02;13.70;99.90
7502;DHT22;3792;47.740;7.606;2023-10-13T06:07:47;13.70;99.90
7502;DHT22;3792;47.740;7.606;2023-10-13T06:10:32;13.80;99.90
7502;DHT22;3792;47.740;7.606;2023-10-13T06:13:16;13.80;99.90
7502;DHT22;3792;47.740;7.606;2023-10-13T06:16:14;13.80;99.90
7502;DHT22;3792;47.740;7.606;2023-10-13T06:19:02;13.80;99.90
7502;DHT22;3792;47.740;7.606;2023-10-13T06:21:46;13.80;99.90
7502;DHT22;3792;47.740;7.606;2023-10-13T06:24:32;13.90;99.90
7502;DHT22;3792;47.740;7.606;2023-10-13T06:27:16;13.90;99.90
7502;DHT22;3792;47.740;7.606;2023-10-13T06:30:02;14.00;99.90
7502;DHT22;3792;47.740;7.606;2023-10-13T06:32:30;14.00;99.90
7502;DHT22;3792;47.740;7.606;2023-10-13T06:34:59;14.10;99.90
7502;DHT22;3792;47.740;7.606;2023-10-13T06:37:33;14.20;99.90
7502;DHT22;3792;47.740;7.606;2023-10-13T06:40:09;14.40;99.90
7502;DHT22;3792;47.740;7.606;2023-10-13T06:42:48;14.50;99.90
7502;DHT22;3792;47.740;7.606;2023-10-13T06:45:15;14.50;99.90
7502;DHT22;3792;47.740;7.606;2023-10-13T06:47:43;14.70;99.90
7502;DHT22;3792;47.740;7.606;2023-10-13T06:50:11;14.80;99.90
7502;DHT22;3792;47.740;7.606;2023-10-13T06:52:42;14.90;99.90
7502;DHT22;3792;47.740;7.606;2023-10-13T06:55:11;15.20;99.90
7502;DHT22;3792;47.740;7.606;2023-10-13T06:57:42;15.30;99.90
7502;DHT22;3792;47.740;7.606;2023-10-13T07:00:10;15.40;99.90
7502;DHT22;3792;47.740;7.606;2023-10-13T07:02:45;15.50;99.90
7502;DHT22;3792;47.740;7.606;2023-10-13T07:05:13;15.60;99.90
7502;DHT22;3792;47.740;7.606;2023-10-13T07:07:41;15.70;99.90
7502;DHT22;3792;47.740;7.606;2023-10-13T07:10:11;15.80;99.90
7502;DHT22;3792;47.740;7.606;2023-10-13T07:12:38;16.00;99.90
7502;DHT22;3792;47.740;7.606;2023-10-13T07:15:09;16.20;99.90
7502;DHT22;3792;47.740;7.606;2023-10-13T07:17:44;16.30;99.90
7502;DHT22;3792;47.740;7.606;2023-10-13T07:20:13;16.40;99.90
7502;DHT22;3792;47.740;7.606;2023-10-13T07:22:50;16.60;99.90
7502;DHT22;3792;47.740;7.606;2023-10-13T07:25:24;16.70;99.90
7502;DHT22;3792;47.740;7.606;2023-10-13T07:27:52;16.90;99.90
7502;DHT22;3792;47.740;7.606;2023-10-13T07:30:22;17.00;99.90
7502;DHT22;3792;47.740;7.606;2023-10-13T07:32:54;17.20;99.90
7502;DHT22;3792;47.740;7.606;2023-10-13T07:35:23;17.40;99.90
7502;DHT22;3792;47.740;7.606;2023-10-13T07:37:52;17.60;99.90
7502;DHT22;3792;47.740;7.606;2023-10-13T07:40:21;17.70;99.90
7502;DHT22;3792;47.740;7.606;2023-10-13T07:43:08;17.90;99.90
7502;DHT22;3792;47.740;7.606;2023-10-13T07:45:39;18.10;99.90
7502;DHT22;3792;47.740;7.606;2023-10-13T07:48:09;18.40;99.90
7502;DHT22;3792;47.740;7.606;2023-10-13T07:50:45;18.60;99.90
7502;DHT22;3792;47.740;7.606;2023-10-13T07:53:14;18.80;99.90
7502;DHT22;3792;47.740;7.606;2023-10-13T07:55:49;19.00;99.90
7502;DHT22;3792;47.740;7.606;2023-10-13T07:58:23;19.20;99.90
7502;DHT22;3792;47.740;7.606;2023-10-13T08:00:51;19.40;99.90
7502;DHT22;3792;47.740;7.606;2023-10-13T08:03:32;19.50;99.90
7502;DHT22;3792;47.740;7.606;2023-10-13T08:06:09;19.70;99.90
7502;DHT22;3792;47.740;7.606;2023-10-13T08:08:46;19.90;99.80
7502;DHT22;3792;47.740;7.606;2023-10-13T08:11:17;20.20;99.90
7502;DHT22;3792;47.740;7.606;2023-10-13T08:13:54;20.40;98.70
7502;DHT22;3792;47.740;7.606;2023-10-13T08:16:25;20.70;97.40
7502;DHT22;3792;47.740;7.606;2023-10-13T08:19:12;20.90;97.20
7502;DHT22;3792;47.740;7.606;2023-10-13T08:21:41;21.10;96.60
7502;DHT22;3792;47.740;7.606;2023-10-13T08:24:15;21.30;96.50
7502;DHT22;3792;47.740;7.606;2023-10-13T08:26:50;21.60;96.20
7502;DHT22;3792;47.740;7.606;2023-10-13T08:29:26;21.80;96.00
7502;DHT22;3792;47.740;7.606;2023-10-13T08:32:10;22.00;95.70
7502;DHT22;3792;47.740;7.606;2023-10-13T08:35:02;22.30;95.00
7502;DHT22;3792;47.740;7.606;2023-10-13T08:37:50;22.50;95.00
7502;DHT22;3792;47.740;7.606;2023-10-13T08:40:30;22.80;95.00
7502;DHT22;3792;47.740;7.606;2023-10-13T08:43:11;23.00;94.00
7502;DHT22;3792;47.740;7.606;2023-10-13T08:45:41;23.20;92.90
7502;DHT22;3792;47.740;7.606;2023-10-13T08:48:21;23.30;92.80
7502;DHT22;3792;47.740;7.606;2023-10-13T08:50:57;23.60;92.40
7502;DHT22;3792;47.740;7.606;2023-10-13T08:53:31;23.80;91.80
7502;DHT22;3792;47.740;7.606;2023-10-13T08:56:05;24.00;91.40
7502;DHT22;3792;47.740;7.606;2023-10-13T08:58:45;24.20;90.40
7502;DHT22;3792;47.740;7.606;2023-10-13T09:01:30;24.40;85.40
7502;DHT22;3792;47.740;7.606;2023-10-13T09:04:12;24.60;82.80
7502;DHT22;3792;47.740;7.606;2023-10-13T09:06:49;24.80;82.90
7502;DHT22;3792;47.740;7.606;2023-10-13T09:09:43;24.90;80.30
7502;DHT22;3792;47.740;7.606;2023-10-13T09:12:26;25.10;78.10
7502;DHT22;3792;47.740;7.606;2023-10-13T09:15:06;25.20;74.80
7502;DHT22;3792;47.740;7.606;2023-10-13T09:17:45;25.20;75.10
7502;DHT22;3792;47.740;7.606;2023-10-13T09:20:27;25.30;72.50
7502;DHT22;3792;47.740;7.606;2023-10-13T09:23:08;25.40;72.10
7502;DHT22;3792;47.740;7.606;2023-10-13T09:25:36;25.50;71.60
7502;DHT22;3792;47.740;7.606;2023-10-13T09:28:10;25.60;69.90
7502;DHT22;3792;47.740;7.606;2023-10-13T09:30:44;25.70;70.30
7502;DHT22;3792;47.740;7.606;2023-10-13T09:33:12;25.80;66.60
7502;DHT22;3792;47.740;7.606;2023-10-13T09:35:43;25.80;64.80
7502;DHT22;3792;47.740;7.606;2023-10-13T09:38:15;25.90;66.60
7502;DHT22;3792;47.740;7.606;2023-10-13T09:40:42;26.00;63.90
7502;DHT22;3792;47.740;7.606;2023-10-13T09:43:17;26.00;63.50
7502;DHT22;3792;47.740;7.606;2023-10-13T09:45:46;26.10;63.20
7502;DHT22;3792;47.740;7.606;2023-10-13T09:48:32;26.20;61.70
7502;DHT22;3792;47.740;7.606;2023-10-13T09:51:00;26.30;61.80
7502;DHT22;3792;47.740;7.606;2023-10-13T09:53:27;26.40;61.50
7502;DHT22;3792;47.740;7.606;2023-10-13T09:56:01;26.50;61.50
7502;DHT22;3792;47.740;7.606;2023-10-13T09:58:46;26.60;60.30
7502;DHT22;3792;47.740;7.606;2023-10-13T10:01:19;26.60;59.90
7502;DHT22;3792;47.740;7.606;2023-10-13T10:04:07;26.70;59.80
7502;DHT22;3792;47.740;7.606;2023-10-13T10:06:37;26.90;60.90
7502;DHT22;3792;47.740;7.606;2023-10-13T10:09:11;27.00;59.60
7502;DHT22;3792;47.740;7.606;2023-10-13T10:12:10;27.20;59.40
7502;DHT22;3792;47.740;7.606;2023-10-13T10:15:06;27.30;58.90
7502;DHT22;3792;47.740;7.606;2023-10-13T10:17:40;27.40;58.30
7502;DHT22;3792;47.740;7.606;2023-10-13T10:20:09;27.40;58.70
7502;DHT22;3792;47.740;7.606;2023-10-13T10:22:56;27.50;57.70
7502;DHT22;3792;47.740;7.606;2023-10-13T10:25:32;27.50;58.10
7502;DHT22;3792;47.740;7.606;2023-10-13T10:28:02;27.60;58.20
7502;DHT22;3792;47.740;7.606;2023-10-13T10:30:33;27.70;57.10
7502;DHT22;3792;47.740;7.606;2023-10-13T10:33:02;27.90;56.90
7502;DHT22;3792;47.740;7.606;2023-10-13T10:35:36;27.90;56.00
7502;DHT22;3792;47.740;7.606;2023-10-13T10:38:11;28.00;56.40
7502;DHT22;3792;47.740;7.606;2023-10-13T10:40:51;28.10;56.90
7502;DHT22;3792;47.740;7.606;2023-10-13T10:43:26;28.20;56.30
7502;DHT22;3792;47.740;7.606;2023-10-13T10:46:07;28.20;55.00
7502;DHT22;3792;47.740;7.606;2023-10-13T10:48:36;28.10;55.50
7502;DHT22;3792;47.740;7.606;2023-10-13T10:51:10;28.20;56.10
7502;DHT22;3792;47.740;7.606;2023-10-13T10:53:47;28.20;55.80
7502;DHT22;3792;47.740;7.606;2023-10-13T10:56:15;28.40;55.90
7502;DHT22;3792;47.740;7.606;2023-10-13T10:59:04;28.60;55.70
7502;DHT22;3792;47.740;7.606;2023-10-13T11:01:33;28.60;55.70
7502;DHT22;3792;47.740;7.606;2023-10-13T11:04:09;28.80;56.10
7502;DHT22;3792;47.740;7.606;2023-10-13T11:06:48;29.00;56.00
7502;DHT22;3792;47.740;7.606;2023-10-13T11:09:24;28.90;56.00
7502;DHT22;3792;47.740;7.606;2023-10-13T11:12:07;28.90;55.90
7502;DHT22;3792;47.740;7.606;2023-10-13T11:14:40;29.00;55.60
7502;DHT22;3792;47.740;7.606;2023-10-13T11:17:09;29.20;56.00
7502;DHT22;3792;47.740;7.606;2023-10-13T11:19:44;29.00;56.10
7502;DHT22;3792;47.740;7.606;2023-10-13T11:22:13;29.10;56.90
7502;DHT22;3792;47.740;7.606;2023-10-13T11:24:55;29.10;56.60
7502;DHT22;3792;47.740;7.606;2023-10-13T11:27:28;29.40;56.90
7502;DHT22;3792;47.740;7.606;2023-10-13T11:30:10;29.20;56.00
7502;DHT22;3792;47.740;7.606;2023-10-13T11:32:40;29.30;55.90
7502;DHT22;3792;47.740;7.606;2023-10-13T11:35:08;29.40;55.80
7502;DHT22;3792;47.740;7.606;2023-10-13T11:37:49;29.60;56.10
7502;DHT22;3792;47.740;7.606;2023-10-13T11:40:22;29.60;55.30
7502;DHT22;3792;47.740;7.606;2023-10-13T11:43:09;29.80;55.20
7502;DHT22;3792;47.740;7.606;2023-10-13T11:45:39;29.70;55.60
7502;DHT22;3792;47.740;7.606;2023-10-13T11:48:20;29.90;55.70
7502;DHT22;3792;47.740;7.606;2023-10-13T11:51:01;29.80;54.70
7502;DHT22;3792;47.740;7.606;2023-10-13T11:53:34;29.80;55.30
7502;DHT22;3792;47.740;7.606;2023-10-13T11:56:02;29.90;54.70
7502;DHT22;3792;47.740;7.606;2023-10-13T11:58:34;30.10;53.70
7502;DHT22;3792;47.740;7.606;2023-10-13T12:01:01;30.30;53.80
7502;DHT22;3792;47.740;7.606;2023-10-13T12:03:49;30.40;54.50
7502;DHT22;3792;47.740;7.606;2023-10-13T12:06:34;30.60;53.60
7502;DHT22;3792;47.740;7.606;2023-10-13T12:09:13;30.80;54.20
7502;DHT22;3792;47.740;7.606;2023-10-13T12:12:05;30.70;53.00
7502;DHT22;3792;47.740;7.606;2023-10-13T12:14:36;30.80;53.90
7502;DHT22;3792;47.740;7.606;2023-10-13T12:17:04;30.80;53.00
7502;DHT22;3792;47.740;7.606;2023-10-13T12:19:36;30.90;52.60
7502;DHT22;3792;47.740;7.606;2023-10-13T12:22:04;31.00;52.10
7502;DHT22;3792;47.740;7.606;2023-10-13T12:24:36;31.00;52.00
7502;DHT22;3792;47.740;7.606;2023-10-13T12:27:09;31.20;52.90
7502;DHT22;3792;47.740;7.606;2023-10-13T12:29:53;31.30;53.40
7502;DHT22;3792;47.740;7.606;2023-10-13T12:32:23;31.20;51.40
7502;DHT22;3792;47.740;7.606;2023-10-13T12:34:51;31.20;51.50
7502;DHT22;3792;47.740;7.606;2023-10-13T12:37:28;31.20;51.30
7502;DHT22;3792;47.740;7.606;2023-10-13T12:40:26;31.30;51.30
7502;DHT22;3792;47.740;7.606;2023-10-13T12:43:25;31.30;52.50
7502;DHT22;3792;47.740;7.606;2023-10-13T12:46:27;31.60;51.70
7502;DHT22;3792;47.740;7.606;2023-10-13T12:49:13;31.40;50.80
7502;DHT22;3792;47.740;7.606;2023-10-13T12:52:02;31.40;51.60
7502;DHT22;3792;47.740;7.606;2023-10-13T12:54:29;31.50;51.50
7502;DHT22;3792;47.740;7.606;2023-10-13T12:57:03;31.60;50.90
7502;DHT22;3792;47.740;7.606;2023-10-13T12:59:35;31.50;50.00
7502;DHT22;3792;47.740;7.606;2023-10-13T13:02:03;31.50;49.80
7502;DHT22;3792;47.740;7.606;2023-10-13T13:04:33;31.70;50.80
7502;DHT22;3792;47.740;7.606;2023-10-13T13:07:02;31.90;47.90
7502;DHT22;3792;47.740;7.606;2023-10-13T13:09:30;31.80;47.20
7502;DHT22;3792;47.740;7.606;2023-10-13T13:11:57;31.70;47.00
7502;DHT22;3792;47.740;7.606;2023-10-13T13:14:26;31.70;46.70
7502;DHT22;3792;47.740;7.606;2023-10-13T13:16:55;31.80;46.20
7502;DHT22;3792;47.740;7.606;2023-10-13T13:19:30;31.90;46.90
7502;DHT22;3792;47.740;7.606;2023-10-13T13:22:16;32.00;46.10
7502;DHT22;3792;47.740;7.606;2023-10-13T13:24:44;32.10;46.40
7502;DHT22;3792;47.740;7.606;2023-10-13T13:27:15;32.00;45.50
7502;DHT22;3792;47.740;7.606;2023-10-13T13:29:48;32.00;46.40
7502;DHT22;3792;47.740;7.606;2023-10-13T13:32:15;32.10;45.60
7502;DHT22;3792;47.740;7.606;2023-10-13T13:34:54;32.40;45.60
7502;DHT22;3792;47.740;7.606;2023-10-13T13:37:29;32.40;45.60
7502;DHT22;3792;47.740;7.606;2023-10-13T13:39:57;32.50;44.90
7502;DHT22;3792;47.740;7.606;2023-10-13T13:42:39;32.40;45.40
7502;DHT22;3792;47.740;7.606;2023-10-13T13:45:11;32.30;44.70
7502;DHT22;3792;47.740;7.606;2023-10-13T13:47:44;32.50;45.70
7502;DHT22;3792;47.740;7.606;2023-10-13T13:50:13;32.40;45.30
7502;DHT22;3792;47.740;7.606;2023-10-13T13:52:49;32.40;43.90
7502;DHT22;3792;47.740;7.606;2023-10-13T13:55:19;32.30;44.10
7502;DHT22;3792;47.740;7.606;2023-10-13T13:57:47;32.30;45.00
7502;DHT22;3792;47.740;7.606;2023-10-13T14:00:18;32.50;45.60
7502;DHT22;3792;47.740;7.606;2023-10-13T14:02:49;32.60;45.50
7502;DHT22;3792;47.740;7.606;2023-10-13T14:05:16;32.80;44.80
7502;DHT22;3792;47.740;7.606;2023-10-13T14:07:44;33.00;44.80
7502;DHT22;3792;47.740;7.606;2023-10-13T14:10:16;33.00;45.40
7502;DHT22;3792;47.740;7.606;2023-10-13T14:12:59;33.20;44.00
7502;DHT22;3792;47.740;7.606;2023-10-13T14:15:34;33.00;43.60
7502;DHT22;3792;47.740;7.606;2023-10-13T14:18:12;32.90;43.40
7502;DHT22;3792;47.740;7.606;2023-10-13T14:20:46;32.80;43.00
7502;DHT22;3792;47.740;7.606;2023-10-13T14:23:14;32.80;43.60
7502;DHT22;3792;47.740;7.606;2023-10-13T14:25:41;32.70;44.50
7502;DHT22;3792;47.740;7.606;2023-10-13T14:28:10;32.90;43.80
7502;DHT22;3792;47.740;7.606;2023-10-13T14:30:44;32.90;44.30
7502;DHT22;3792;47.740;7.606;2023-10-13T14:33:11;32.70;43.20
7502;DHT22;3792;47.740;7.606;2023-10-13T14:35:39;32.80;44.80
7502;DHT22;3792;47.740;7.606;2023-10-13T14:38:06;32.90;43.90
7502;DHT22;3792;47.740;7.606;2023-10-13T14:40:33;33.00;44.60
7502;DHT22;3792;47.740;7.606;2023-10-13T14:43:00;33.10;44.80
7502;DHT22;3792;47.740;7.606;2023-10-13T14:45:27;33.10;45.50
7502;DHT22;3792;47.740;7.606;2023-10-13T14:48:02;33.10;45.40
7502;DHT22;3792;47.740;7.606;2023-10-13T14:50:34;33.00;45.20
7502;DHT22;3792;47.740;7.606;2023-10-13T14:53:13;33.10;46.20
7502;DHT22;3792;47.740;7.606;2023-10-13T14:55:46;33.00;46.40
7502;DHT22;3792;47.740;7.606;2023-10-13T14:58:14;33.00;45.50
7502;DHT22;3792;47.740;7.606;2023-10-13T15:00:41;32.90;45.50
7502;DHT22;3792;47.740;7.606;2023-10-13T15:03:12;32.80;46.30
7502;DHT22;3792;47.740;7.606;2023-10-13T15:05:39;32.80;47.20
7502;DHT22;3792;47.740;7.606;2023-10-13T15:08:08;32.80;46.60
7502;DHT22;3792;47.740;7.606;2023-10-13T15:10:36;32.70;48.50
7502;DHT22;3792;47.740;7.606;2023-10-13T15:13:03;32.70;47.30
7502;DHT22;3792;47.740;7.606;2023-10-13T15:15:30;32.70;46.90
7502;DHT22;3792;47.740;7.606;2023-10-13T15:17:58;32.60;46.80
7502;DHT22;3792;47.740;7.606;2023-10-13T15:20:28;32.60;47.50
7502;DHT22;3792;47.740;7.606;2023-10-13T15:22:55;32.60;47.40
7502;DHT22;3792;47.740;7.606;2023-10-13T15:25:25;32.40;47.70
7502;DHT22;3792;47.740;7.606;2023-10-13T15:28:00;32.40;48.30
7502;DHT22;3792;47.740;7.606;2023-10-13T15:30:29;32.10;47.60
7502;DHT22;3792;47.740;7.606;2023-10-13T15:33:10;31.90;48.50
7502;DHT22;3792;47.740;7.606;2023-10-13T15:35:40;31.80;50.50
7502;DHT22;3792;47.740;7.606;2023-10-13T15:38:09;31.60;49.30
7502;DHT22;3792;47.740;7.606;2023-10-13T15:40:40;31.50;49.00
7502;DHT22;3792;47.740;7.606;2023-10-13T15:43:09;31.40;48.30
7502;DHT22;3792;47.740;7.606;2023-10-13T15:45:36;31.10;48.00
7502;DHT22;3792;47.740;7.606;2023-10-13T15:48:08;30.70;48.40
7502;DHT22;3792;47.740;7.606;2023-10-13T15:50:36;30.40;48.10
7502;DHT22;3792;47.740;7.606;2023-10-13T15:53:08;30.10;46.50
7502;DHT22;3792;47.740;7.606;2023-10-13T15:55:38;29.80;47.50
7502;DHT22;3792;47.740;7.606;2023-10-13T15:58:05;29.70;47.70
7502;DHT22;3792;47.740;7.606;2023-10-13T16:00:34;29.50;48.00
7502;DHT22;3792;47.740;7.606;2023-10-13T16:03:02;29.30;47.80
7502;DHT22;3792;47.740;7.606;2023-10-13T16:05:38;29.10;47.90
7502;DHT22;3792;47.740;7.606;2023-10-13T16:08:09;29.00;49.00
7502;DHT22;3792;47.740;7.606;2023-10-13T16:10:38;28.80;49.50
7502;DHT22;3792;47.740;7.606;2023-10-13T16:13:06;28.50;50.60
7502;DHT22;3792;47.740;7.606;2023-10-13T16:15:41;28.00;50.60
7502;DHT22;3792;47.740;7.606;2023-10-13T16:18:09;27.70;51.40
7502;DHT22;3792;47.740;7.606;2023-10-13T16:20:36;27.40;52.60
7502;DHT22;3792;47.740;7.606;2023-10-13T16:23:04;26.90;52.90
7502;DHT22;3792;47.740;7.606;2023-10-13T16:25:33;26.30;53.50
7502;DHT22;3792;47.740;7.606;2023-10-13T16:28:00;25.90;54.10
7502;DHT22;3792;47.740;7.606;2023-10-13T16:30:28;25.60;54.70
7502;DHT22;3792;47.740;7.606;2023-10-13T16:32:55;25.20;55.80
7502;DHT22;3792;47.740;7.606;2023-10-13T16:35:22;25.00;54.90
7502;DHT22;3792;47.740;7.606;2023-10-13T16:37:49;24.70;56.10
7502;DHT22;3792;47.740;7.606;2023-10-13T16:40:18;24.50;56.40
7502;DHT22;3792;47.740;7.606;2023-10-13T16:42:47;24.40;54.50
7502;DHT22;3792;47.740;7.606;2023-10-13T16:45:15;24.30;54.20
7502;DHT22;3792;47.740;7.606;2023-10-13T16:47:46;24.30;51.10
7502;DHT22;3792;47.740;7.606;2023-10-13T16:50:14;24.30;53.90